sensor_id;sensor_type;location;lat;lon;timestamp;P1;durP1;ratioP1;P2;durP2;ratioP2
7527;SDS011;3805;49.006;8.514;2022-09-23T00:00:20;6.40;;;5.90;;
7527;SDS011;3805;49.006;8.514;2022-09-23T00:03:08;7.47;;;4.93;;
7527;SDS011;3805;49.006;8.514;2022-09-23T00:05:58;5.80;;;5.40;;
7527;SDS011;3805;49.006;8.514;2022-09-23T00:08:48;6.60;;;4.87;;
7527;SDS011;3805;49.006;8.514;2022-09-23T00:11:37;5.07;;;4.67;;
7527;SDS011;3805;49.006;8.514;2022-09-23T00:14:26;5.60;;;5.20;;
7527;SDS011;3805;49.006;8.514;2022-09-23T00:17:14;5.87;;;5.27;;
7527;SDS011;3805;49.006;8.514;2022-09-23T00:20:03;5.60;;;5.20;;
7527;SDS011;3805;49.006;8.514;2022-09-23T00:22:52;5.40;;;4.90;;
7527;SDS011;3805;49.006;8.514;2022-09-23T00:25:45;6.03;;;5.53;;
7527;SDS011;3805;49.006;8.514;2022-09-23T00:28:33;5.23;;;4.73;;
7527;SDS011;3805;49.006;8.514;2022-09-23T00:31:23;5.83;;;5.33;;
7527;SDS011;3805;49.006;8.514;2022-09-23T00:34:12;8.20;;;5.30;;
7527;SDS011;3805;49.006;8.514;2022-09-23T00:37:00;6.83;;;5.80;;
7527;SDS011;3805;49.006;8.514;2022-09-23T00:39:49;11.90;;;5.73;;
7527;SDS011;3805;49.006;8.514;2022-09-23T00:42:39;5.07;;;4.67;;
7527;SDS011;3805;49.006;8.514;2022-09-23T00:45:33;7.33;;;5.97;;
7527;SDS011;3805;49.006;8.514;2022-09-23T00:48:22;5.90;;;5.50;;
7527;SDS011;3805;49.006;8.514;2022-09-23T00:51:11;7.50;;;6.33;;
7527;SDS011;3805;49.006;8.514;2022-09-23T00:54:04;7.23;;;5.70;;
7527;SDS011;3805;49.006;8.514;2022-09-23T00:56:53;7.60;;;6.20;;
7527;SDS011;3805;49.006;8.514;2022-09-23T00:59:44;7.97;;;7.20;;
7527;SDS011;3805;49.006;8.514;2022-09-23T01:02:32;7.60;;;6.17;;
7527;SDS011;3805;49.006;8.514;2022-09-23T01:05:21;6.13;;;5.63;;
7527;SDS011;3805;49.006;8.514;2022-09-23T01:08:09;6.60;;;6.10;;
7527;SDS011;3805;49.006;8.514;2022-09-23T01:11:01;6.87;;;6.30;;
7527;SDS011;3805;49.006;8.514;2022-09-23T01:14:01;8.27;;;6.20;;
7527;SDS011;3805;49.006;8.514;2022-09-23T01:17:00;7.07;;;6.47;;
7527;SDS011;3805;49.006;8.514;2022-09-23T01:20:00;8.90;;;8.10;;
7527;SDS011;3805;49.006;8.514;2022-09-23T01:22:56;7.80;;;6.90;;
7527;SDS011;3805;49.006;8.514;2022-09-23T01:26:01;7.83;;;6.93;;
7527;SDS011;3805;49.006;8.514;2022-09-23T01:29:01;7.27;;;6.57;;
7527;SDS011;3805;49.006;8.514;2022-09-23T01:32:04;6.50;;;5.90;;
7527;SDS011;3805;49.006;8.514;2022-09-23T01:34:56;6.80;;;6.20;;
7527;SDS011;3805;49.006;8.514;2022-09-23T01:37:51;7.57;;;6.10;;
7527;SDS011;3805;49.006;8.514;2022-09-23T01:40:47;6.40;;;5.90;;
7527;SDS011;3805;49.006;8.514;2022-09-23T01:43:39;6.80;;;6.20;;
7527;SDS011;3805;49.006;8.514;2022-09-23T01:46:34;6.20;;;5.60;;
7527;SDS011;3805;49.006;8.514;2022-09-23T01:49:31;6.63;;;6.10;;
7527;SDS011;3805;49.006;8.514;2022-09-23T01:52:23;6.80;;;6.20;;
7527;SDS011;3805;49.006;8.514;2022-09-23T01:55:16;6.00;;;5.50;;
7527;SDS011;3805;49.006;8.514;2022-09-23T01:58:07;5.33;;;4.83;;
7527;SDS011;3805;49.006;8.514;2022-09-23T02:00:59;6.23;;;5.70;;
7527;SDS011;3805;49.006;8.514;2022-09-23T02:03:51;5.93;;;5.43;;
7527;SDS011;3805;49.006;8.514;2022-09-23T02:06:47;5.30;;;4.80;;
7527;SDS011;3805;49.006;8.514;2022-09-23T02:09:38;5.80;;;5.40;;
7527;SDS011;3805;49.006;8.514;2022-09-23T02:12:29;5.30;;;4.80;;
7527;SDS011;3805;49.006;8.514;2022-09-23T02:15:21;7.43;;;5.90;;
7527;SDS011;3805;49.006;8.514;2022-09-23T02:18:13;4.90;;;4.60;;
7527;SDS011;3805;49.006;8.514;2022-09-23T02:21:05;7.30;;;4.73;;
7527;SDS011;3805;49.006;8.514;2022-09-23T02:23:56;5.83;;;5.43;;
7527;SDS011;3805;49.006;8.514;2022-09-23T02:26:48;7.00;;;6.40;;
7527;SDS011;3805;49.006;8.514;2022-09-23T02:29:41;6.73;;;6.00;;
7527;SDS011;3805;49.006;8.514;2022-09-23T02:32:36;6.67;;;6.10;;
7527;SDS011;3805;49.006;8.514;2022-09-23T02:35:30;6.30;;;5.90;;
7527;SDS011;3805;49.006;8.514;2022-09-23T02:38:23;5.50;;;5.10;;
7527;SDS011;3805;49.006;8.514;2022-09-23T02:41:17;5.63;;;5.23;;
7527;SDS011;3805;49.006;8.514;2022-09-23T02:44:13;10.53;;;5.40;;
7527;SDS011;3805;49.006;8.514;2022-09-23T02:47:03;5.90;;;4.90;;
7527;SDS011;3805;49.006;8.514;2022-09-23T02:49:51;6.13;;;5.73;;
7527;SDS011;3805;49.006;8.514;2022-09-23T02:52:42;5.87;;;5.47;;
7527;SDS011;3805;49.006;8.514;2022-09-23T02:55:30;6.63;;;5.67;;
7527;SDS011;3805;49.006;8.514;2022-09-23T02:58:20;5.97;;;5.47;;
7527;SDS011;3805;49.006;8.514;2022-09-23T03:01:12;5.73;;;5.23;;
7527;SDS011;3805;49.006;8.514;2022-09-23T03:04:09;6.50;;;5.90;;
7527;SDS011;3805;49.006;8.514;2022-09-23T03:07:03;5.97;;;5.37;;
7527;SDS011;3805;49.006;8.514;2022-09-23T03:09:54;6.17;;;5.10;;
7527;SDS011;3805;49.006;8.514;2022-09-23T03:12:51;6.43;;;5.10;;
7527;SDS011;3805;49.006;8.514;2022-09-23T03:15:47;7.30;;;6.70;;
7527;SDS011;3805;49.006;8.514;2022-09-23T03:18:39;8.90;;;7.57;;
7527;SDS011;3805;49.006;8.514;2022-09-23T03:21:31;8.23;;;7.37;;
7527;SDS011;3805;49.006;8.514;2022-09-23T03:24:22;9.30;;;8.40;;
7527;SDS011;3805;49.006;8.514;2022-09-23T03:27:12;7.73;;;7.13;;
7527;SDS011;3805;49.006;8.514;2022-09-23T03:30:04;7.87;;;7.20;;
7527;SDS011;3805;49.006;8.514;2022-09-23T03:32:56;6.60;;;6.10;;
7527;SDS011;3805;49.006;8.514;2022-09-23T03:35:47;7.70;;;6.70;;
7527;SDS011;3805;49.006;8.514;2022-09-23T03:38:58;6.10;;;5.60;;
7527;SDS011;3805;49.006;8.514;2022-09-23T03:41:50;6.43;;;5.93;;
7527;SDS011;3805;49.006;8.514;2022-09-23T03:44:41;6.87;;;5.40;;
7527;SDS011;3805;49.006;8.514;2022-09-23T03:47:30;6.73;;;6.23;;
7527;SDS011;3805;49.006;8.514;2022-09-23T03:50:20;7.83;;;6.53;;
7527;SDS011;3805;49.006;8.514;2022-09-23T03:53:08;6.90;;;6.40;;
7527;SDS011;3805;49.006;8.514;2022-09-23T03:55:59;7.73;;;7.03;;
7527;SDS011;3805;49.006;8.514;2022-09-23T03:58:48;6.30;;;5.70;;
7527;SDS011;3805;49.006;8.514;2022-09-23T04:01:37;6.70;;;6.13;;
7527;SDS011;3805;49.006;8.514;2022-09-23T04:04:25;6.80;;;6.30;;
7527;SDS011;3805;49.006;8.514;2022-09-23T04:07:15;7.07;;;6.37;;
7527;SDS011;3805;49.006;8.514;2022-09-23T04:10:05;7.70;;;6.63;;
7527;SDS011;3805;49.006;8.514;2022-09-23T04:12:55;6.90;;;6.30;;
7527;SDS011;3805;49.006;8.514;2022-09-23T04:15:44;6.30;;;5.80;;
7527;SDS011;3805;49.006;8.514;2022-09-23T04:18:32;8.63;;;6.53;;
7527;SDS011;3805;49.006;8.514;2022-09-23T04:21:21;6.60;;;6.00;;
7527;SDS011;3805;49.006;8.514;2022-09-23T04:24:11;7.10;;;6.50;;
7527;SDS011;3805;49.006;8.514;2022-09-23T04:27:00;6.60;;;6.00;;
7527;SDS011;3805;49.006;8.514;2022-09-23T04:29:49;8.07;;;7.30;;
7527;SDS011;3805;49.006;8.514;2022-09-23T04:32:37;7.50;;;6.90;;
7527;SDS011;3805;49.006;8.514;2022-09-23T04:35:26;6.93;;;6.23;;
7527;SDS011;3805;49.006;8.514;2022-09-23T04:38:14;7.93;;;7.13;;
7527;SDS011;3805;49.006;8.514;2022-09-23T04:41:04;7.00;;;6.40;;
7527;SDS011;3805;49.006;8.514;2022-09-23T04:43:55;6.80;;;6.30;;
7527;SDS011;3805;49.006;8.514;2022-09-23T04:46:44;7.87;;;7.17;;
7527;SDS011;3805;49.006;8.514;2022-09-23T04:49:34;8.30;;;7.60;;
7527;SDS011;3805;49.006;8.514;2022-09-23T04:52:22;10.17;;;8.10;;
7527;SDS011;3805;49.006;8.514;2022-09-23T04:55:11;8.40;;;7.50;;
7527;SDS011;3805;49.006;8.514;2022-09-23T04:58:01;8.93;;;8.13;;
7527;SDS011;3805;49.006;8.514;2022-09-23T05:00:49;8.40;;;7.30;;
7527;SDS011;3805;49.006;8.514;2022-09-23T05:03:38;7.60;;;6.93;;
7527;SDS011;3805;49.006;8.514;2022-09-23T05:06:27;9.00;;;8.20;;
7527;SDS011;3805;49.006;8.514;2022-09-23T05:09:17;8.50;;;7.80;;
7527;SDS011;3805;49.006;8.514;2022-09-23T05:12:05;8.60;;;7.80;;
7527;SDS011;3805;49.006;8.514;2022-09-23T05:14:55;9.67;;;8.60;;
7527;SDS011;3805;49.006;8.514;2022-09-23T05:17:44;9.57;;;8.60;;
7527;SDS011;3805;49.006;8.514;2022-09-23T05:20:32;10.10;;;8.87;;
7527;SDS011;3805;49.006;8.514;2022-09-23T05:23:21;10.13;;;9.13;;
7527;SDS011;3805;49.006;8.514;2022-09-23T05:26:10;10.97;;;9.87;;
7527;SDS011;3805;49.006;8.514;2022-09-23T05:28:59;11.37;;;10.37;;
7527;SDS011;3805;49.006;8.514;2022-09-23T05:31:49;8.83;;;8.03;;
7527;SDS011;3805;49.006;8.514;2022-09-23T05:34:38;9.93;;;8.93;;
7527;SDS011;3805;49.006;8.514;2022-09-23T05:37:26;9.40;;;8.50;;
7527;SDS011;3805;49.006;8.514;2022-09-23T05:40:15;9.57;;;8.57;;
7527;SDS011;3805;49.006;8.514;2022-09-23T05:43:03;13.93;;;8.37;;
7527;SDS011;3805;49.006;8.514;2022-09-23T05:46:00;8.80;;;7.40;;
7527;SDS011;3805;49.006;8.514;2022-09-23T05:48:56;7.70;;;7.00;;
7527;SDS011;3805;49.006;8.514;2022-09-23T05:51:49;9.07;;;8.20;;
7527;SDS011;3805;49.006;8.514;2022-09-23T05:54:37;8.30;;;7.70;;
7527;SDS011;3805;49.006;8.514;2022-09-23T05:57:26;7.13;;;6.57;;
7527;SDS011;3805;49.006;8.514;2022-09-23T06:00:16;8.20;;;7.50;;
7527;SDS011;3805;49.006;8.514;2022-09-23T06:03:04;8.47;;;7.77;;
7527;SDS011;3805;49.006;8.514;2022-09-23T06:05:54;6.97;;;6.40;;
7527;SDS011;3805;49.006;8.514;2022-09-23T06:08:43;7.83;;;7.23;;
7527;SDS011;3805;49.006;8.514;2022-09-23T06:11:32;10.60;;;7.97;;
7527;SDS011;3805;49.006;8.514;2022-09-23T06:14:22;7.50;;;6.70;;
7527;SDS011;3805;49.006;8.514;2022-09-23T06:17:12;6.90;;;6.30;;
7527;SDS011;3805;49.006;8.514;2022-09-23T06:20:01;8.10;;;6.70;;
7527;SDS011;3805;49.006;8.514;2022-09-23T06:22:51;7.00;;;6.50;;
7527;SDS011;3805;49.006;8.514;2022-09-23T06:25:41;9.30;;;7.37;;
7527;SDS011;3805;49.006;8.514;2022-09-23T06:28:30;8.17;;;7.43;;
7527;SDS011;3805;49.006;8.514;2022-09-23T06:31:19;7.80;;;7.17;;
7527;SDS011;3805;49.006;8.514;2022-09-23T06:34:08;6.93;;;6.20;;
7527;SDS011;3805;49.006;8.514;2022-09-23T06:37:00;7.43;;;6.67;;
7527;SDS011;3805;49.006;8.514;2022-09-23T06:40:04;7.63;;;6.93;;
7527;SDS011;3805;49.006;8.514;2022-09-23T06:42:56;9.73;;;8.20;;
7527;SDS011;3805;49.006;8.514;2022-09-23T06:45:45;7.50;;;5.63;;
7527;SDS011;3805;49.006;8.514;2022-09-23T06:48:33;6.87;;;6.30;;
7527;SDS011;3805;49.006;8.514;2022-09-23T06:51:22;7.63;;;7.00;;
7527;SDS011;3805;49.006;8.514;2022-09-23T06:54:11;6.97;;;6.27;;
7527;SDS011;3805;49.006;8.514;2022-09-23T06:57:00;7.57;;;6.63;;
7527;SDS011;3805;49.006;8.514;2022-09-23T06:59:49;8.13;;;5.80;;
7527;SDS011;3805;49.006;8.514;2022-09-23T07:02:38;8.50;;;5.57;;
7527;SDS011;3805;49.006;8.514;2022-09-23T07:05:28;7.03;;;6.43;;
7527;SDS011;3805;49.006;8.514;2022-09-23T07:08:16;7.20;;;6.03;;
7527;SDS011;3805;49.006;8.514;2022-09-23T07:11:05;6.73;;;6.03;;
7527;SDS011;3805;49.006;8.514;2022-09-23T07:14:00;7.10;;;6.40;;
7527;SDS011;3805;49.006;8.514;2022-09-23T07:16:49;6.60;;;6.03;;
7527;SDS011;3805;49.006;8.514;2022-09-23T07:19:39;7.57;;;6.70;;
7527;SDS011;3805;49.006;8.514;2022-09-23T07:22:27;7.27;;;6.33;;
7527;SDS011;3805;49.006;8.514;2022-09-23T07:25:16;6.17;;;5.67;;
7527;SDS011;3805;49.006;8.514;2022-09-23T07:28:04;8.17;;;6.80;;
7527;SDS011;3805;49.006;8.514;2022-09-23T07:30:55;6.40;;;5.90;;
7527;SDS011;3805;49.006;8.514;2022-09-23T07:33:47;9.50;;;5.93;;
7527;SDS011;3805;49.006;8.514;2022-09-23T07:36:35;5.90;;;5.40;;
7527;SDS011;3805;49.006;8.514;2022-09-23T07:39:27;7.20;;;5.53;;
7527;SDS011;3805;49.006;8.514;2022-09-23T07:42:15;6.10;;;5.53;;
7527;SDS011;3805;49.006;8.514;2022-09-23T07:45:04;6.20;;;5.70;;
7527;SDS011;3805;49.006;8.514;2022-09-23T07:47:56;4.83;;;4.53;;
7527;SDS011;3805;49.006;8.514;2022-09-23T07:50:44;7.60;;;5.80;;
7527;SDS011;3805;49.006;8.514;2022-09-23T07:53:33;15.17;;;5.97;;
7527;SDS011;3805;49.006;8.514;2022-09-23T07:56:24;10.90;;;5.90;;
7527;SDS011;3805;49.006;8.514;2022-09-23T07:59:13;7.13;;;5.20;;
7527;SDS011;3805;49.006;8.514;2022-09-23T08:02:04;7.17;;;5.33;;
7527;SDS011;3805;49.006;8.514;2022-09-23T08:04:54;4.70;;;4.30;;
7527;SDS011;3805;49.006;8.514;2022-09-23T08:07:43;4.70;;;4.30;;
7527;SDS011;3805;49.006;8.514;2022-09-23T08:10:32;4.57;;;4.27;;
7527;SDS011;3805;49.006;8.514;2022-09-23T08:13:20;4.70;;;4.27;;
7527;SDS011;3805;49.006;8.514;2022-09-23T08:16:09;6.53;;;4.43;;
7527;SDS011;3805;49.006;8.514;2022-09-23T08:18:57;4.70;;;4.40;;
7527;SDS011;3805;49.006;8.514;2022-09-23T08:21:48;4.53;;;4.13;;
7527;SDS011;3805;49.006;8.514;2022-09-23T08:24:38;6.50;;;4.57;;
7527;SDS011;3805;49.006;8.514;2022-09-23T08:27:26;5.10;;;4.53;;
7527;SDS011;3805;49.006;8.514;2022-09-23T08:30:15;5.77;;;5.27;;
7527;SDS011;3805;49.006;8.514;2022-09-23T08:33:03;6.90;;;4.63;;
7527;SDS011;3805;49.006;8.514;2022-09-23T08:35:52;5.10;;;4.77;;
7527;SDS011;3805;49.006;8.514;2022-09-23T08:38:47;5.20;;;4.77;;
7527;SDS011;3805;49.006;8.514;2022-09-23T08:41:37;5.80;;;5.20;;
7527;SDS011;3805;49.006;8.514;2022-09-23T08:44:29;7.20;;;5.57;;
7527;SDS011;3805;49.006;8.514;2022-09-23T08:47:22;5.67;;;5.17;;
7527;SDS011;3805;49.006;8.514;2022-09-23T08:50:14;6.60;;;5.90;;
7527;SDS011;3805;49.006;8.514;2022-09-23T08:53:06;5.43;;;4.90;;
7527;SDS011;3805;49.006;8.514;2022-09-23T08:56:02;5.53;;;5.13;;
7527;SDS011;3805;49.006;8.514;2022-09-23T08:58:54;4.80;;;4.40;;
7527;SDS011;3805;49.006;8.514;2022-09-23T09:01:48;5.40;;;4.90;;
7527;SDS011;3805;49.006;8.514;2022-09-23T09:04:39;4.93;;;4.63;;
7527;SDS011;3805;49.006;8.514;2022-09-23T09:07:31;5.40;;;4.53;;
7527;SDS011;3805;49.006;8.514;2022-09-23T09:10:23;4.90;;;4.30;;
7527;SDS011;3805;49.006;8.514;2022-09-23T09:13:19;4.77;;;4.17;;
7527;SDS011;3805;49.006;8.514;2022-09-23T09:16:15;4.80;;;4.47;;
7527;SDS011;3805;49.006;8.514;2022-09-23T09:22:45;4.77;;;4.47;;
7527;SDS011;3805;49.006;8.514;2022-09-23T09:25:41;5.00;;;4.57;;
7527;SDS011;3805;49.006;8.514;2022-09-23T09:28:34;5.30;;;4.80;;
7527;SDS011;3805;49.006;8.514;2022-09-23T09:31:28;4.17;;;3.80;;
7527;SDS011;3805;49.006;8.514;2022-09-23T09:34:22;5.50;;;5.07;;
7527;SDS011;3805;49.006;8.514;2022-09-23T09:37:14;4.73;;;4.37;;
7527;SDS011;3805;49.006;8.514;2022-09-23T09:40:06;5.23;;;4.73;;
7527;SDS011;3805;49.006;8.514;2022-09-23T09:42:58;8.27;;;4.57;;
7527;SDS011;3805;49.006;8.514;2022-09-23T09:45:49;4.50;;;4.10;;
7527;SDS011;3805;49.006;8.514;2022-09-23T09:48:46;5.33;;;3.83;;
7527;SDS011;3805;49.006;8.514;2022-09-23T09:51:40;4.40;;;4.00;;
7527;SDS011;3805;49.006;8.514;2022-09-23T09:54:29;5.80;;;5.30;;
7527;SDS011;3805;49.006;8.514;2022-09-23T09:57:25;4.63;;;4.23;;
7527;SDS011;3805;49.006;8.514;2022-09-23T10:00:35;4.30;;;4.00;;
7527;SDS011;3805;49.006;8.514;2022-09-23T10:03:36;5.03;;;4.60;;
7527;SDS011;3805;49.006;8.514;2022-09-23T10:06:25;5.10;;;4.60;;
7527;SDS011;3805;49.006;8.514;2022-09-23T10:09:16;3.93;;;3.63;;
7527;SDS011;3805;49.006;8.514;2022-09-23T10:12:12;5.10;;;4.80;;
7527;SDS011;3805;49.006;8.514;2022-09-23T10:15:11;6.60;;;4.90;;
7527;SDS011;3805;49.006;8.514;2022-09-23T10:18:16;10.10;;;5.10;;
7527;SDS011;3805;49.006;8.514;2022-09-23T10:21:08;7.33;;;4.10;;
7527;SDS011;3805;49.006;8.514;2022-09-23T10:23:58;4.60;;;4.20;;
7527;SDS011;3805;49.006;8.514;2022-09-23T10:26:54;5.23;;;4.13;;
7527;SDS011;3805;49.006;8.514;2022-09-23T10:29:47;4.70;;;4.40;;
7527;SDS011;3805;49.006;8.514;2022-09-23T10:32:43;4.43;;;4.03;;
7527;SDS011;3805;49.006;8.514;2022-09-23T10:35:32;4.43;;;4.03;;
7527;SDS011;3805;49.006;8.514;2022-09-23T10:38:24;4.93;;;3.80;;
7527;SDS011;3805;49.006;8.514;2022-09-23T10:41:24;6.47;;;3.93;;
7527;SDS011;3805;49.006;8.514;2022-09-23T10:44:35;4.80;;;4.33;;
7527;SDS011;3805;49.006;8.514;2022-09-23T10:47:50;4.20;;;3.90;;
7527;SDS011;3805;49.006;8.514;2022-09-23T10:50:43;4.33;;;3.77;;
7527;SDS011;3805;49.006;8.514;2022-09-23T10:53:37;4.37;;;4.00;;
7527;SDS011;3805;49.006;8.514;2022-09-23T10:56:34;5.30;;;4.90;;
7527;SDS011;3805;49.006;8.514;2022-09-23T10:59:30;4.47;;;4.13;;
7527;SDS011;3805;49.006;8.514;2022-09-23T11:02:43;5.70;;;4.40;;
7527;SDS011;3805;49.006;8.514;2022-09-23T11:05:49;5.03;;;4.63;;
7527;SDS011;3805;49.006;8.514;2022-09-23T11:08:51;4.63;;;4.23;;
7527;SDS011;3805;49.006;8.514;2022-09-23T11:11:48;8.27;;;4.73;;
7527;SDS011;3805;49.006;8.514;2022-09-23T11:14:50;4.50;;;4.10;;
7527;SDS011;3805;49.006;8.514;2022-09-23T11:17:50;5.40;;;3.97;;
7527;SDS011;3805;49.006;8.514;2022-09-23T11:20:52;6.03;;;4.20;;
7527;SDS011;3805;49.006;8.514;2022-09-23T11:23:53;6.97;;;5.40;;
7527;SDS011;3805;49.006;8.514;2022-09-23T11:26:48;4.23;;;3.93;;
7527;SDS011;3805;49.006;8.514;2022-09-23T11:30:00;4.20;;;3.90;;
7527;SDS011;3805;49.006;8.514;2022-09-23T11:32:57;4.10;;;3.70;;
7527;SDS011;3805;49.006;8.514;2022-09-23T11:35:54;5.13;;;4.07;;
7527;SDS011;3805;49.006;8.514;2022-09-23T11:38:45;4.87;;;3.70;;
7527;SDS011;3805;49.006;8.514;2022-09-23T11:41:37;3.60;;;3.40;;
7527;SDS011;3805;49.006;8.514;2022-09-23T11:44:27;3.83;;;3.53;;
7527;SDS011;3805;49.006;8.514;2022-09-23T11:47:20;4.10;;;3.60;;
7527;SDS011;3805;49.006;8.514;2022-09-23T11:50:13;3.80;;;3.27;;
7527;SDS011;3805;49.006;8.514;2022-09-23T11:53:07;5.20;;;3.80;;
7527;SDS011;3805;49.006;8.514;2022-09-23T11:56:01;4.70;;;3.77;;
7527;SDS011;3805;49.006;8.514;2022-09-23T11:58:56;4.50;;;4.10;;
7527;SDS011;3805;49.006;8.514;2022-09-23T12:01:51;3.33;;;3.13;;
7527;SDS011;3805;49.006;8.514;2022-09-23T12:04:42;4.00;;;3.60;;
7527;SDS011;3805;49.006;8.514;2022-09-23T12:07:46;4.13;;;3.73;;
7527;SDS011;3805;49.006;8.514;2022-09-23T12:10:41;4.73;;;3.00;;
7527;SDS011;3805;49.006;8.514;2022-09-23T12:13:35;5.53;;;4.43;;
7527;SDS011;3805;49.006;8.514;2022-09-23T12:16:39;3.10;;;2.70;;
7527;SDS011;3805;49.006;8.514;2022-09-23T12:19:53;3.57;;;3.27;;
7527;SDS011;3805;49.006;8.514;2022-09-23T12:23:05;3.67;;;3.37;;
7527;SDS011;3805;49.006;8.514;2022-09-23T12:26:01;3.47;;;3.17;;
7527;SDS011;3805;49.006;8.514;2022-09-23T12:28:53;3.27;;;2.97;;
7527;SDS011;3805;49.006;8.514;2022-09-23T12:31:48;6.10;;;3.50;;
7527;SDS011;3805;49.006;8.514;2022-09-23T12:34:37;2.80;;;2.60;;
7527;SDS011;3805;49.006;8.514;2022-09-23T12:37:28;3.70;;;3.10;;
7527;SDS011;3805;49.006;8.514;2022-09-23T12:40:22;2.93;;;2.73;;
7527;SDS011;3805;49.006;8.514;2022-09-23T12:43:17;4.40;;;3.20;;
7527;SDS011;3805;49.006;8.514;2022-09-23T12:46:17;4.63;;;3.57;;
7527;SDS011;3805;49.006;8.514;2022-09-23T12:49:21;2.80;;;2.60;;
7527;SDS011;3805;49.006;8.514;2022-09-23T12:52:12;4.00;;;3.17;;
7527;SDS011;3805;49.006;8.514;2022-09-23T12:58:36;4.77;;;4.33;;
7527;SDS011;3805;49.006;8.514;2022-09-23T13:01:25;4.00;;;3.37;;
7527;SDS011;3805;49.006;8.514;2022-09-23T13:04:29;3.97;;;2.90;;
7527;SDS011;3805;49.006;8.514;2022-09-23T13:07:39;3.30;;;3.00;;
7527;SDS011;3805;49.006;8.514;2022-09-23T13:10:30;2.83;;;2.63;;
7527;SDS011;3805;49.006;8.514;2022-09-23T13:13:21;2.50;;;2.30;;
7527;SDS011;3805;49.006;8.514;2022-09-23T13:16:12;4.30;;;4.00;;
7527;SDS011;3805;49.006;8.514;2022-09-23T13:19:08;3.70;;;3.20;;
7527;SDS011;3805;49.006;8.514;2022-09-23T13:25:55;4.10;;;3.40;;
7527;SDS011;3805;49.006;8.514;2022-09-23T13:28:54;3.60;;;3.40;;
7527;SDS011;3805;49.006;8.514;2022-09-23T13:31:44;4.20;;;3.83;;
7527;SDS011;3805;49.006;8.514;2022-09-23T13:34:33;4.73;;;4.20;;
7527;SDS011;3805;49.006;8.514;2022-09-23T13:37:28;6.40;;;3.13;;
7527;SDS011;3805;49.006;8.514;2022-09-23T13:40:19;3.30;;;2.70;;
7527;SDS011;3805;49.006;8.514;2022-09-23T13:43:11;3.30;;;3.10;;
7527;SDS011;3805;49.006;8.514;2022-09-23T13:46:05;3.90;;;2.50;;
7527;SDS011;3805;49.006;8.514;2022-09-23T13:48:56;3.83;;;3.10;;
7527;SDS011;3805;49.006;8.514;2022-09-23T13:51:44;3.47;;;3.17;;
7527;SDS011;3805;49.006;8.514;2022-09-23T13:54:45;3.00;;;2.80;;
7527;SDS011;3805;49.006;8.514;2022-09-23T13:57:35;6.20;;;3.30;;
7527;SDS011;3805;49.006;8.514;2022-09-23T14:00:24;3.40;;;3.10;;
7527;SDS011;3805;49.006;8.514;2022-09-23T14:03:17;4.67;;;3.13;;
7527;SDS011;3805;49.006;8.514;2022-09-23T14:06:08;4.10;;;2.90;;
7527;SDS011;3805;49.006;8.514;2022-09-23T14:08:59;3.20;;;2.90;;
7527;SDS011;3805;49.006;8.514;2022-09-23T14:11:49;3.43;;;3.13;;
7527;SDS011;3805;49.006;8.514;2022-09-23T14:14:39;3.47;;;3.17;;
7527;SDS011;3805;49.006;8.514;2022-09-23T14:17:28;3.80;;;3.50;;
7527;SDS011;3805;49.006;8.514;2022-09-23T14:20:19;3.43;;;3.13;;
7527;SDS011;3805;49.006;8.514;2022-09-23T14:23:09;3.43;;;3.10;;
7527;SDS011;3805;49.006;8.514;2022-09-23T14:26:00;3.43;;;2.77;;
7527;SDS011;3805;49.006;8.514;2022-09-23T14:28:50;3.13;;;2.90;;
7527;SDS011;3805;49.006;8.514;2022-09-23T14:31:39;4.27;;;2.90;;
7527;SDS011;3805;49.006;8.514;2022-09-23T14:34:46;3.10;;;2.83;;
7527;SDS011;3805;49.006;8.514;2022-09-23T14:37:38;3.20;;;2.90;;
7527;SDS011;3805;49.006;8.514;2022-09-23T14:40:49;4.60;;;2.90;;
7527;SDS011;3805;49.006;8.514;2022-09-23T14:43:39;3.60;;;3.20;;
7527;SDS011;3805;49.006;8.514;2022-09-23T14:46:36;3.30;;;3.10;;
7527;SDS011;3805;49.006;8.514;2022-09-23T14:49:26;3.20;;;2.90;;
7527;SDS011;3805;49.006;8.514;2022-09-23T14:52:14;3.23;;;2.80;;
7527;SDS011;3805;49.006;8.514;2022-09-23T14:55:04;2.83;;;2.50;;
7527;SDS011;3805;49.006;8.514;2022-09-23T14:58:02;3.30;;;3.00;;
7527;SDS011;3805;49.006;8.514;2022-09-23T15:00:52;3.23;;;2.93;;
7527;SDS011;3805;49.006;8.514;2022-09-23T15:03:46;4.27;;;2.83;;
7527;SDS011;3805;49.006;8.514;2022-09-23T15:06:34;3.17;;;2.93;;
7527;SDS011;3805;49.006;8.514;2022-09-23T15:09:24;4.37;;;2.87;;
7527;SDS011;3805;49.006;8.514;2022-09-23T15:12:14;3.23;;;3.03;;
7527;SDS011;3805;49.006;8.514;2022-09-23T15:15:09;2.87;;;2.60;;
7527;SDS011;3805;49.006;8.514;2022-09-23T15:18:03;3.37;;;3.07;;
7527;SDS011;3805;49.006;8.514;2022-09-23T15:20:55;3.23;;;2.70;;
7527;SDS011;3805;49.006;8.514;2022-09-23T15:23:45;3.43;;;2.87;;
7527;SDS011;3805;49.006;8.514;2022-09-23T15:26:39;4.17;;;3.07;;
7527;SDS011;3805;49.006;8.514;2022-09-23T15:29:31;3.60;;;3.10;;
7527;SDS011;3805;49.006;8.514;2022-09-23T15:32:20;3.53;;;3.17;;
7527;SDS011;3805;49.006;8.514;2022-09-23T15:35:10;3.30;;;3.10;;
7527;SDS011;3805;49.006;8.514;2022-09-23T15:38:03;2.97;;;2.77;;
7527;SDS011;3805;49.006;8.514;2022-09-23T15:40:51;2.90;;;2.70;;
7527;SDS011;3805;49.006;8.514;2022-09-23T15:43:41;3.33;;;3.03;;
7527;SDS011;3805;49.006;8.514;2022-09-23T15:46:29;3.10;;;2.80;;
7527;SDS011;3805;49.006;8.514;2022-09-23T15:49:21;2.70;;;2.50;;
7527;SDS011;3805;49.006;8.514;2022-09-23T15:52:14;3.60;;;3.30;;
7527;SDS011;3805;49.006;8.514;2022-09-23T15:55:10;3.43;;;3.10;;
7527;SDS011;3805;49.006;8.514;2022-09-23T15:58:01;7.30;;;2.60;;
7527;SDS011;3805;49.006;8.514;2022-09-23T16:00:50;3.10;;;2.90;;
7527;SDS011;3805;49.006;8.514;2022-09-23T16:03:43;4.50;;;2.97;;
7527;SDS011;3805;49.006;8.514;2022-09-23T16:06:31;3.50;;;3.20;;
7527;SDS011;3805;49.006;8.514;2022-09-23T16:09:22;4.60;;;3.10;;
7527;SDS011;3805;49.006;8.514;2022-09-23T16:12:11;3.00;;;2.70;;
7527;SDS011;3805;49.006;8.514;2022-09-23T16:15:01;3.57;;;3.10;;
7527;SDS011;3805;49.006;8.514;2022-09-23T16:17:50;4.37;;;3.53;;
7527;SDS011;3805;49.006;8.514;2022-09-23T16:20:39;2.93;;;2.73;;
7527;SDS011;3805;49.006;8.514;2022-09-23T16:23:32;3.40;;;3.13;;
7527;SDS011;3805;49.006;8.514;2022-09-23T16:26:21;3.67;;;3.37;;
7527;SDS011;3805;49.006;8.514;2022-09-23T16:29:12;3.90;;;3.03;;
7527;SDS011;3805;49.006;8.514;2022-09-23T16:32:01;6.17;;;2.80;;
7527;SDS011;3805;49.006;8.514;2022-09-23T16:34:49;3.73;;;3.50;;
7527;SDS011;3805;49.006;8.514;2022-09-23T16:37:38;4.10;;;3.47;;
7527;SDS011;3805;49.006;8.514;2022-09-23T16:40:26;6.23;;;3.87;;
7527;SDS011;3805;49.006;8.514;2022-09-23T16:43:15;4.60;;;3.67;;
7527;SDS011;3805;49.006;8.514;2022-09-23T16:46:05;7.90;;;4.10;;
7527;SDS011;3805;49.006;8.514;2022-09-23T16:48:54;4.53;;;4.13;;
7527;SDS011;3805;49.006;8.514;2022-09-23T16:51:43;4.80;;;4.10;;
7527;SDS011;3805;49.006;8.514;2022-09-23T16:54:32;5.10;;;4.00;;
7527;SDS011;3805;49.006;8.514;2022-09-23T16:57:23;4.80;;;3.80;;
7527;SDS011;3805;49.006;8.514;2022-09-23T17:00:12;5.03;;;4.53;;
7527;SDS011;3805;49.006;8.514;2022-09-23T17:03:21;5.57;;;4.40;;
7527;SDS011;3805;49.006;8.514;2022-09-23T17:06:27;10.70;;;7.10;;
7527;SDS011;3805;49.006;8.514;2022-09-23T17:09:16;11.10;;;8.10;;
7527;SDS011;3805;49.006;8.514;2022-09-23T17:12:08;11.67;;;8.90;;
7527;SDS011;3805;49.006;8.514;2022-09-23T17:15:01;8.87;;;7.73;;
7527;SDS011;3805;49.006;8.514;2022-09-23T17:17:51;12.40;;;10.30;;
7527;SDS011;3805;49.006;8.514;2022-09-23T17:20:41;12.30;;;11.10;;
7527;SDS011;3805;49.006;8.514;2022-09-23T17:23:30;11.93;;;9.60;;
7527;SDS011;3805;49.006;8.514;2022-09-23T17:26:19;12.57;;;11.47;;
7527;SDS011;3805;49.006;8.514;2022-09-23T17:29:09;12.00;;;11.10;;
7527;SDS011;3805;49.006;8.514;2022-09-23T17:31:57;8.67;;;6.10;;
7527;SDS011;3805;49.006;8.514;2022-09-23T17:34:46;6.93;;;4.87;;
7527;SDS011;3805;49.006;8.514;2022-09-23T17:37:36;5.60;;;5.13;;
7527;SDS011;3805;49.006;8.514;2022-09-23T17:40:24;4.93;;;4.50;;
7527;SDS011;3805;49.006;8.514;2022-09-23T17:43:13;5.20;;;4.80;;
7527;SDS011;3805;49.006;8.514;2022-09-23T17:46:03;7.67;;;6.90;;
7527;SDS011;3805;49.006;8.514;2022-09-23T17:48:53;7.60;;;6.80;;
7527;SDS011;3805;49.006;8.514;2022-09-23T17:51:41;7.73;;;6.27;;
7527;SDS011;3805;49.006;8.514;2022-09-23T17:54:31;6.13;;;5.63;;
7527;SDS011;3805;49.006;8.514;2022-09-23T17:57:22;7.60;;;6.80;;
7527;SDS011;3805;49.006;8.514;2022-09-23T18:00:11;12.40;;;8.03;;